Time;durP1;ratioP1;P1;durP2;ratioP2;P2;SDS_P1;SDS_P2;PMS_P1;PMS_P2;Temp;Humidity;BMP_temperature;BMP_pressure;BME280_temperature;BME280_humidity;BME280_pressure;Samples;Min_cycle;Max_cycle;Signal;HPM_P1;HPM_P2
2020/12/09 00:01:40;;;;;;;27.37;11.90;;;2.40;99.90;;;;;;1932897;73;21061;-78
2020/12/09 00:04:06;;;;;;;22.73;11.85;;;2.40;99.90;;;;;;1932076;73;21097;-77
2020/12/09 00:06:32;;;;;;;20.27;11.08;;;2.30;99.90;;;;;;1931188;73;21545;-77
2020/12/09 00:08:58;;;;;;;21.50;12.00;;;2.30;99.90;;;;;;1932780;73;21136;-78
2020/12/09 00:11:24;;;;;;;20.80;11.15;;;2.30;99.90;;;;;;1927057;74;21038;-78
2020/12/09 00:13:51;;;;;;;25.97;11.88;;;2.30;99.90;;;;;;1918565;74;21069;-75
2020/12/09 00:16:17;;;;;;;22.73;12.37;;;2.30;99.90;;;;;;1918306;73;21486;-77
2020/12/09 00:18:43;;;;;;;23.80;12.47;;;2.30;99.90;;;;;;1930376;73;21129;-76
2020/12/09 00:21:09;;;;;;;23.60;12.53;;;2.40;99.90;;;;;;1934536;74;21066;-77
2020/12/09 00:23:35;;;;;;;25.25;13.18;;;2.40;99.90;;;;;;1937180;73;21101;-75
2020/12/09 00:26:01;;;;;;;29.37;12.93;;;2.40;99.90;;;;;;1925231;73;21063;-76
2020/12/09 00:28:27;;;;;;;24.20;13.08;;;2.30;99.90;;;;;;1931267;74;21063;-75
2020/12/09 00:30:53;;;;;;;24.90;13.22;;;2.30;99.90;;;;;;1935917;73;21136;-75
2020/12/09 00:33:20;;;;;;;24.02;12.23;;;2.30;99.90;;;;;;1933482;73;21137;-76
2020/12/09 00:35:46;;;;;;;21.45;11.50;;;2.30;99.90;;;;;;1933399;74;21067;-75
2020/12/09 00:38:12;;;;;;;20.48;11.28;;;2.20;99.90;;;;;;1930732;74;21136;-75
2020/12/09 00:40:42;;;;;;;20.12;10.85;;;2.20;99.90;;;;;;1928202;73;21070;-76
2020/12/09 00:43:06;;;;;;;22.30;11.63;;;2.10;99.90;;;;;;1929693;73;21071;-77
2020/12/09 00:45:32;;;;;;;21.68;11.80;;;2.10;99.90;;;;;;1926794;74;21040;-76
2020/12/09 00:47:58;;;;;;;24.40;11.93;;;2.00;99.90;;;;;;1922489;73;21059;-76
2020/12/09 00:52:52;;;;;;;23.80;12.28;;;1.90;99.90;;;;;;1926670;73;21126;-75
2020/12/09 00:55:18;;;;;;;23.18;12.05;;;1.90;99.90;;;;;;1929674;73;21105;-75
2020/12/09 00:57:44;;;;;;;20.95;11.08;;;1.90;99.90;;;;;;1926241;73;21101;-76
2020/12/09 01:00:10;;;;;;;19.82;11.75;;;2.00;99.90;;;;;;1921790;74;21031;-76
2020/12/09 01:02:36;;;;;;;26.60;11.65;;;2.10;99.90;;;;;;1923691;73;21494;-76
2020/12/09 01:05:02;;;;;;;34.90;12.85;;;2.10;99.90;;;;;;1928653;73;21590;-76
2020/12/09 01:07:29;;;;;;;32.75;12.53;;;2.10;99.90;;;;;;1929261;73;21466;-77
2020/12/09 01:09:55;;;;;;;20.62;12.65;;;2.10;99.90;;;;;;1933790;74;21456;-76
2020/12/09 01:12:21;;;;;;;24.15;11.65;;;2.20;99.90;;;;;;1930191;74;21465;-76
2020/12/09 01:14:47;;;;;;;23.38;12.10;;;2.20;99.90;;;;;;1929815;73;21059;-76
2020/12/09 01:17:13;;;;;;;23.02;12.73;;;2.20;99.90;;;;;;1931247;73;21203;-77
2020/12/09 01:19:39;;;;;;;30.40;13.03;;;2.20;99.90;;;;;;1929046;74;21135;-76
2020/12/09 01:22:05;;;;;;;25.37;13.95;;;2.30;99.90;;;;;;1928984;73;21127;-76
2020/12/09 01:24:32;;;;;;;27.25;13.43;;;2.30;99.90;;;;;;1936913;73;21036;-75
2020/12/09 01:26:58;;;;;;;23.70;13.48;;;2.30;99.90;;;;;;1931731;73;21119;-76
2020/12/09 01:29:24;;;;;;;28.65;13.83;;;2.30;99.90;;;;;;1933870;74;21079;-77
2020/12/09 01:31:50;;;;;;;27.62;13.98;;;2.30;99.90;;;;;;1934009;74;21195;-76
2020/12/09 01:34:16;;;;;;;32.80;13.45;;;2.20;99.90;;;;;;1931847;74;21102;-76
2020/12/09 01:36:42;;;;;;;26.93;13.88;;;2.30;99.90;;;;;;1936869;73;21491;-77
2020/12/09 01:39:08;;;;;;;30.15;14.50;;;2.30;99.90;;;;;;1932857;74;21455;-75
2020/12/09 01:41:34;;;;;;;35.85;14.63;;;2.40;99.90;;;;;;1926205;74;21479;-75
2020/12/09 01:44:00;;;;;;;27.13;13.65;;;2.40;99.90;;;;;;1925396;73;21067;-76
2020/12/09 01:46:27;;;;;;;25.92;13.40;;;2.40;99.90;;;;;;1934169;73;21156;-77
2020/12/09 01:48:54;;;;;;;26.82;13.03;;;2.50;99.90;;;;;;1932389;74;21122;-77
2020/12/09 01:51:20;;;;;;;24.75;14.25;;;2.50;99.90;;;;;;1930001;74;21069;-76
2020/12/09 01:53:46;;;;;;;32.50;14.33;;;2.50;99.90;;;;;;1930019;73;21059;-76
2020/12/09 01:56:13;;;;;;;24.32;12.88;;;2.40;99.90;;;;;;1932086;73;21137;-76
2020/12/09 01:58:39;;;;;;;26.52;13.93;;;2.50;99.90;;;;;;1933037;73;21067;-76
2020/12/09 02:01:05;;;;;;;34.00;14.43;;;2.60;99.90;;;;;;1926784;73;21034;-76
2020/12/09 02:03:31;;;;;;;22.55;13.85;;;2.60;99.90;;;;;;1922824;73;21549;-76
2020/12/09 02:05:59;;;;;;;28.75;13.60;;;2.60;99.90;;;;;;1933834;73;21469;-76
2020/12/09 02:08:25;;;;;;;35.58;13.98;;;2.60;99.90;;;;;;1927960;73;21071;-77
2020/12/09 02:10:51;;;;;;;34.60;12.95;;;2.40;99.90;;;;;;1929359;73;21068;-76
2020/12/09 02:13:17;;;;;;;21.70;13.20;;;2.40;99.90;;;;;;1932125;73;21161;-76
2020/12/09 02:15:43;;;;;;;29.27;13.13;;;2.30;99.90;;;;;;1933079;73;21261;-76
2020/12/09 02:18:09;;;;;;;30.70;12.47;;;2.30;99.90;;;;;;1922131;73;21143;-76
2020/12/09 02:20:35;;;;;;;26.87;12.80;;;2.40;99.90;;;;;;1926191;73;21454;-76
2020/12/09 02:23:01;;;;;;;23.62;11.97;;;2.30;99.90;;;;;;1943143;73;21480;-76
2020/12/09 02:25:28;;;;;;;27.87;13.40;;;2.30;99.90;;;;;;1926623;74;21485;-76
2020/12/09 02:27:54;;;;;;;24.75;12.65;;;2.30;99.90;;;;;;1932866;74;21071;-76
2020/12/09 02:30:21;;;;;;;30.12;14.05;;;2.30;99.90;;;;;;1932298;73;21063;-76
2020/12/09 02:32:47;;;;;;;25.23;12.47;;;2.10;99.90;;;;;;1953361;73;21066;-76
2020/12/09 02:35:13;;;;;;;30.08;13.62;;;2.30;99.90;;;;;;1931493;73;21195;-76
2020/12/09 02:37:39;;;;;;;24.87;12.45;;;2.30;99.90;;;;;;1929924;74;21044;-76
2020/12/09 02:40:05;;;;;;;28.85;14.03;;;2.20;99.90;;;;;;1931069;73;21063;-75
2020/12/09 02:42:31;;;;;;;26.85;12.90;;;2.20;99.90;;;;;;1929025;73;21141;-77
2020/12/09 02:44:59;;;;;;;28.07;12.30;;;2.20;99.90;;;;;;1928986;73;21486;-76
2020/12/09 02:47:25;;;;;;;24.25;13.70;;;2.30;99.90;;;;;;1928040;73;21058;-76
2020/12/09 02:49:51;;;;;;;22.62;12.15;;;2.30;99.90;;;;;;1923796;74;21129;-76
2020/12/09 02:52:17;;;;;;;25.95;13.83;;;2.30;99.90;;;;;;1933593;74;21067;-76
2020/12/09 02:54:43;;;;;;;29.90;12.43;;;2.30;99.90;;;;;;1927965;74;21133;-76
2020/12/09 02:57:10;;;;;;;30.85;12.93;;;2.30;99.90;;;;;;1929474;73;21218;-75
2020/12/09 02:59:36;;;;;;;18.30;11.28;;;2.30;99.90;;;;;;1927813;73;21036;-76
2020/12/09 03:02:02;;;;;;;24.67;12.78;;;2.20;99.90;;;;;;1930506;74;21491;-77
2020/12/09 03:04:28;;;;;;;20.35;11.90;;;2.30;99.90;;;;;;1935353;73;21473;-75
2020/12/09 03:06:54;;;;;;;22.27;12.30;;;2.30;99.90;;;;;;1932841;74;21478;-76
2020/12/09 03:09:20;;;;;;;27.50;14.90;;;2.30;99.90;;;;;;1929780;73;21515;-76
2020/12/09 03:11:46;;;;;;;25.77;12.37;;;2.20;99.90;;;;;;1922391;73;21039;-75
2020/12/09 03:14:12;;;;;;;23.87;12.80;;;2.20;99.90;;;;;;1927055;73;21061;-75
2020/12/09 03:16:39;;;;;;;29.67;14.05;;;2.20;99.90;;;;;;1929178;73;21123;-76
2020/12/09 03:19:05;;;;;;;25.48;13.98;;;2.30;99.90;;;;;;1934940;73;21063;-77
2020/12/09 03:21:31;;;;;;;26.40;14.63;;;2.20;99.90;;;;;;1929318;74;21066;-76
2020/12/09 03:23:57;;;;;;;31.33;14.23;;;2.20;99.90;;;;;;1919689;73;21056;-76
2020/12/09 03:26:26;;;;;;;31.55;13.38;;;2.10;99.90;;;;;;1928138;74;21191;-75
2020/12/09 03:28:51;;;;;;;22.95;13.62;;;2.00;99.90;;;;;;1932914;72;21119;-77
2020/12/09 03:31:17;;;;;;;23.20;12.65;;;2.00;99.90;;;;;;1936548;73;21132;-77
2020/12/09 03:33:44;;;;;;;24.65;12.68;;;2.00;99.90;;;;;;1932239;73;21087;-76
2020/12/09 03:36:10;;;;;;;28.83;12.88;;;2.00;99.90;;;;;;1930810;73;21052;-76
2020/12/09 03:38:37;;;;;;;31.82;13.35;;;2.10;99.90;;;;;;1927015;74;21075;-76
2020/12/09 03:41:05;;;;;;;29.87;13.60;;;2.10;99.90;;;;;;1928513;74;21057;-77
2020/12/09 03:43:31;;;;;;;31.10;13.88;;;2.10;99.90;;;;;;1936312;73;21063;-76
2020/12/09 03:45:57;;;;;;;21.97;12.60;;;2.10;99.90;;;;;;1927549;74;21067;-76
2020/12/09 03:48:23;;;;;;;26.12;13.72;;;2.10;99.90;;;;;;1929789;73;21069;-76
2020/12/09 03:50:49;;;;;;;31.00;13.20;;;2.10;99.90;;;;;;1921884;73;21030;-76
2020/12/09 03:53:15;;;;;;;31.95;14.05;;;2.00;99.90;;;;;;1934869;73;21068;-77
2020/12/09 03:55:41;;;;;;;29.25;13.05;;;2.00;99.90;;;;;;1934285;73;21140;-77
2020/12/09 03:58:08;;;;;;;25.05;12.35;;;2.00;99.90;;;;;;1929332;74;21067;-77
2020/12/09 04:00:34;;;;;;;29.63;13.55;;;2.00;99.90;;;;;;1926967;73;21499;-77
2020/12/09 04:03:00;;;;;;;24.72;12.37;;;1.90;99.90;;;;;;1930676;73;21463;-77
2020/12/09 04:05:26;;;;;;;19.80;11.43;;;1.90;99.90;;;;;;1931814;73;21494;-77
2020/12/09 04:07:52;;;;;;;25.85;13.28;;;1.90;99.90;;;;;;1941391;74;21576;-78
2020/12/09 04:10:18;;;;;;;24.52;12.93;;;1.80;99.90;;;;;;1924742;73;21151;-76
2020/12/09 04:12:44;;;;;;;26.65;13.10;;;1.70;99.90;;;;;;1928760;73;21051;-78
2020/12/09 04:15:10;;;;;;;23.95;12.60;;;1.70;99.90;;;;;;1931181;73;21053;-79
2020/12/09 04:17:37;;;;;;;22.77;12.37;;;1.70;99.90;;;;;;1933624;73;21136;-78
2020/12/09 04:20:03;;;;;;;32.15;12.28;;;1.70;99.90;;;;;;1933900;73;21153;-77
2020/12/09 04:22:29;;;;;;;22.42;11.60;;;1.70;99.90;;;;;;1930786;73;21064;-75
2020/12/09 04:24:55;;;;;;;26.97;12.13;;;1.80;99.90;;;;;;1931453;74;21055;-77
2020/12/09 04:27:21;;;;;;;21.95;11.45;;;1.80;99.90;;;;;;1933728;73;21059;-78
2020/12/09 04:29:47;;;;;;;18.90;11.15;;;1.80;99.90;;;;;;1929944;73;21136;-76
2020/12/09 04:32:15;;;;;;;22.60;13.05;;;1.80;99.90;;;;;;1930566;73;21108;-77
2020/12/09 04:34:41;;;;;;;25.05;11.55;;;1.80;99.90;;;;;;1929668;73;21072;-76
2020/12/09 04:37:07;;;;;;;25.85;12.85;;;1.70;99.90;;;;;;1932419;73;21042;-77
2020/12/09 04:39:33;;;;;;;27.07;11.53;;;1.70;99.90;;;;;;1935458;74;21118;-79
2020/12/09 04:41:59;;;;;;;22.60;12.33;;;1.80;99.90;;;;;;1928780;74;21059;-79
2020/12/09 04:44:25;;;;;;;25.23;12.07;;;1.80;99.90;;;;;;1933678;73;21129;-77
2020/12/09 04:46:51;;;;;;;24.50;12.13;;;1.80;99.90;;;;;;1931537;74;21035;-77
2020/12/09 04:49:17;;;;;;;23.45;12.47;;;1.80;99.90;;;;;;1931451;73;21059;-78
2020/12/09 04:51:44;;;;;;;32.17;14.05;;;1.90;99.90;;;;;;1929332;73;21103;-77
2020/12/09 04:54:10;;;;;;;21.30;11.95;;;1.80;99.90;;;;;;1930404;74;21067;-78
2020/12/09 04:56:36;;;;;;;25.55;12.45;;;1.80;99.90;;;;;;1931185;74;21133;-77
2020/12/09 04:59:04;;;;;;;22.80;12.50;;;1.80;99.90;;;;;;1931997;73;21038;-79
2020/12/09 05:01:30;;;;;;;29.63;13.90;;;1.70;99.90;;;;;;1939534;74;21066;-77
2020/12/09 05:03:56;;;;;;;21.85;12.18;;;1.70;99.90;;;;;;1932889;73;21055;-77
2020/12/09 05:06:22;;;;;;;30.20;13.25;;;1.70;99.90;;;;;;1922549;73;21131;-79
2020/12/09 05:08:49;;;;;;;26.70;12.47;;;1.70;99.90;;;;;;1928052;73;21060;-77
2020/12/09 05:11:15;;;;;;;25.35;12.47;;;1.70;99.90;;;;;;1935126;74;21052;-78
2020/12/09 05:13:42;;;;;;;27.13;11.30;;;1.70;99.90;;;;;;1931905;73;21059;-78
2020/12/09 05:16:08;;;;;;;24.50;12.20;;;1.80;99.90;;;;;;1928900;73;21075;-78
2020/12/09 05:18:34;;;;;;;29.40;12.78;;;1.80;99.90;;;;;;1933675;73;21176;-78
2020/12/09 05:21:01;;;;;;;27.00;12.78;;;1.80;99.90;;;;;;1926767;73;21071;-77
2020/12/09 05:23:27;;;;;;;23.85;11.63;;;1.90;99.90;;;;;;1930909;73;21132;-77
2020/12/09 05:25:53;;;;;;;28.47;13.30;;;1.90;99.90;;;;;;1933802;74;21063;-77
2020/12/09 05:28:19;;;;;;;26.10;13.08;;;1.90;99.90;;;;;;1932695;74;21063;-77
2020/12/09 05:30:45;;;;;;;25.27;12.15;;;1.90;99.90;;;;;;1933904;74;21125;-76
2020/12/09 05:33:11;;;;;;;25.55;12.30;;;2.00;99.90;;;;;;1931657;73;21131;-76
2020/12/09 05:35:39;;;;;;;28.05;12.37;;;1.90;99.90;;;;;;1932385;74;21145;-78
2020/12/09 05:38:05;;;;;;;26.27;11.75;;;2.00;99.90;;;;;;1926739;73;21079;-80
2020/12/09 05:40:31;;;;;;;23.35;12.63;;;1.90;99.90;;;;;;1933129;73;21040;-79
2020/12/09 05:42:57;;;;;;;25.35;12.95;;;2.00;99.90;;;;;;1926541;73;21071;-80
2020/12/09 05:45:23;;;;;;;25.35;11.05;;;2.00;99.90;;;;;;1935492;73;21172;-79
2020/12/09 05:47:49;;;;;;;21.75;11.35;;;2.10;99.90;;;;;;1921025;74;21060;-77
2020/12/09 05:50:15;;;;;;;26.70;12.07;;;2.00;99.90;;;;;;1912739;75;21214;-78
2020/12/09 05:52:42;;;;;;;18.50;11.40;;;2.10;99.90;;;;;;1918968;73;21062;-75
2020/12/09 05:55:08;;;;;;;27.73;12.35;;;2.10;99.90;;;;;;1937472;73;21042;-77
2020/12/09 05:57:34;;;;;;;20.32;11.12;;;2.10;99.90;;;;;;1936631;73;21140;-76
2020/12/09 06:00:00;;;;;;;23.15;12.25;;;2.20;99.90;;;;;;1933941;74;21053;-74
2020/12/09 06:02:26;;;;;;;24.77;11.73;;;2.20;99.90;;;;;;1928718;74;21069;-77
2020/12/09 06:04:53;;;;;;;26.48;11.95;;;2.20;99.90;;;;;;1929867;73;21053;-78
2020/12/09 06:07:19;;;;;;;20.23;11.55;;;2.20;99.90;;;;;;1933873;73;21048;-78
2020/12/09 06:09:45;;;;;;;24.20;11.80;;;2.20;99.90;;;;;;1930715;73;21138;-77
2020/12/09 06:12:11;;;;;;;25.55;13.45;;;2.20;99.90;;;;;;1924459;73;21104;-77
2020/12/09 06:14:37;;;;;;;23.55;12.55;;;2.20;99.90;;;;;;1933501;73;21066;-77
2020/12/09 06:17:03;;;;;;;28.30;13.22;;;2.20;99.90;;;;;;1928758;73;21149;-76
2020/12/09 06:19:31;;;;;;;23.95;12.63;;;2.20;99.90;;;;;;1931387;74;21128;-76
2020/12/09 06:21:57;;;;;;;24.20;12.65;;;2.10;99.90;;;;;;1932959;73;21160;-76
2020/12/09 06:24:23;;;;;;;31.20;13.65;;;2.00;99.90;;;;;;1933328;74;21063;-74
2020/12/09 06:26:49;;;;;;;23.98;13.18;;;2.00;99.90;;;;;;1921475;73;21065;-74
2020/12/09 06:29:15;;;;;;;23.77;13.38;;;2.00;99.90;;;;;;1933763;74;21036;-76
2020/12/09 06:31:41;;;;;;;32.60;14.53;;;2.10;99.90;;;;;;1932289;73;21071;-74
2020/12/09 06:34:08;;;;;;;25.77;13.95;;;2.00;99.90;;;;;;1930745;73;21071;-75
2020/12/09 06:36:34;;;;;;;24.65;13.48;;;1.90;99.90;;;;;;1934333;73;21556;-74
2020/12/09 06:39:00;;;;;;;29.67;13.08;;;1.90;99.90;;;;;;1933936;73;21616;-75
2020/12/09 06:41:26;;;;;;;20.45;12.37;;;1.90;99.90;;;;;;1930298;73;21506;-73
2020/12/09 06:43:52;;;;;;;24.82;13.45;;;1.90;99.90;;;;;;1934798;73;21424;-73
2020/12/09 06:46:18;;;;;;;25.55;14.03;;;1.90;99.90;;;;;;1927378;73;21071;-74
2020/12/09 06:48:44;;;;;;;25.72;12.47;;;1.90;99.90;;;;;;1932398;74;21184;-75
2020/12/09 06:51:10;;;;;;;28.85;11.45;;;1.90;99.90;;;;;;1937308;73;21040;-74
2020/12/09 06:53:36;;;;;;;20.52;12.53;;;1.90;99.90;;;;;;1932218;73;21091;-75
2020/12/09 06:56:03;;;;;;;21.75;12.00;;;1.80;99.90;;;;;;1930579;74;21071;-75
2020/12/09 06:58:29;;;;;;;25.05;13.03;;;1.90;99.90;;;;;;1927342;73;21055;-74
2020/12/09 07:00:55;;;;;;;29.63;13.08;;;1.90;99.90;;;;;;1933714;73;21064;-74
2020/12/09 07:03:21;;;;;;;24.45;12.20;;;1.90;99.90;;;;;;1931132;74;21048;-74
2020/12/09 07:05:47;;;;;;;29.27;13.28;;;2.00;99.90;;;;;;1931039;73;21057;-75
2020/12/09 07:08:15;;;;;;;31.48;14.33;;;1.90;99.90;;;;;;1928175;74;21063;-73
2020/12/09 07:10:41;;;;;;;25.92;13.15;;;1.90;99.90;;;;;;1931396;73;21108;-74
2020/12/09 07:13:07;;;;;;;23.87;13.22;;;1.90;99.90;;;;;;1928906;74;21133;-74
2020/12/09 07:15:33;;;;;;;21.95;12.45;;;1.90;99.90;;;;;;1931949;73;21065;-74
2020/12/09 07:17:59;;;;;;;31.65;13.30;;;2.00;99.90;;;;;;1935729;73;21127;-74
2020/12/09 07:20:25;;;;;;;26.87;13.08;;;2.00;99.90;;;;;;1940865;73;21133;-74
2020/12/09 07:22:52;;;;;;;26.77;12.65;;;2.10;99.90;;;;;;1930750;73;21076;-74
2020/12/09 07:25:20;;;;;;;25.20;12.60;;;2.10;99.90;;;;;;1927397;73;21029;-73
2020/12/09 07:27:46;;;;;;;24.35;12.10;;;2.30;99.90;;;;;;1927944;73;21071;-74
2020/12/09 07:30:12;;;;;;;26.23;11.93;;;2.20;99.90;;;;;;1924637;73;21071;-75
2020/12/09 07:32:39;;;;;;;27.52;13.78;;;2.20;99.90;;;;;;1930626;74;21071;-74
2020/12/09 07:35:05;;;;;;;23.67;12.53;;;2.30;99.90;;;;;;1922903;73;21061;-74
2020/12/09 07:37:32;;;;;;;29.72;13.43;;;2.30;99.90;;;;;;1926251;73;21136;-74
2020/12/09 07:40:02;;;;;;;24.47;12.95;;;2.30;99.90;;;;;;1931540;73;21483;-75
2020/12/09 07:42:26;;;;;;;28.27;12.82;;;2.10;99.90;;;;;;1929499;74;21186;-74
2020/12/09 07:44:52;;;;;;;31.62;13.13;;;2.10;99.90;;;;;;1933770;74;21432;-73
2020/12/09 07:47:18;;;;;;;25.85;12.98;;;2.10;99.90;;;;;;1928852;74;21129;-74
2020/12/09 07:49:44;;;;;;;24.72;12.75;;;2.10;99.90;;;;;;1925999;73;21071;-74
2020/12/09 07:52:11;;;;;;;28.38;14.15;;;2.10;99.90;;;;;;1930572;73;21174;-74
2020/12/09 07:54:38;;;;;;;31.00;14.93;;;2.20;99.90;;;;;;1933763;73;21052;-74
2020/12/09 07:57:04;;;;;;;25.90;13.78;;;2.20;99.90;;;;;;1931316;73;21109;-74
2020/12/09 07:59:30;;;;;;;27.17;13.13;;;2.10;99.90;;;;;;1920550;73;21151;-74
2020/12/09 08:01:56;;;;;;;31.00;14.55;;;2.10;99.90;;;;;;1929123;74;21074;-74
2020/12/09 08:04:22;;;;;;;28.40;13.60;;;2.20;99.90;;;;;;1928175;73;21495;-74
2020/12/09 08:06:49;;;;;;;23.62;12.93;;;2.30;99.90;;;;;;1933696;74;21409;-74
2020/12/09 08:09:15;;;;;;;23.95;13.58;;;2.30;99.90;;;;;;1928899;74;21061;-74
2020/12/09 08:11:41;;;;;;;31.68;13.20;;;2.30;99.90;;;;;;1924542;73;21073;-75
2020/12/09 08:14:07;;;;;;;25.92;13.00;;;2.30;99.90;;;;;;1931904;74;21067;-74
2020/12/09 08:16:33;;;;;;;28.52;13.15;;;2.30;99.90;;;;;;1925540;73;21062;-76
2020/12/09 08:19:00;;;;;;;22.70;12.53;;;2.40;99.90;;;;;;1925760;73;21031;-75
2020/12/09 08:21:26;;;;;;;26.15;13.38;;;2.40;99.90;;;;;;1928790;74;21071;-74
2020/12/09 08:23:52;;;;;;;23.98;12.95;;;2.50;99.90;;;;;;1933860;73;21475;-75
2020/12/09 08:26:18;;;;;;;31.17;13.83;;;2.40;99.90;;;;;;1928729;74;21135;-74
2020/12/09 08:28:44;;;;;;;26.68;12.73;;;2.50;99.90;;;;;;1928919;73;21050;-75
2020/12/09 08:31:10;;;;;;;28.60;12.63;;;2.50;99.90;;;;;;1928533;73;21065;-75
2020/12/09 08:33:36;;;;;;;27.22;13.28;;;2.50;99.90;;;;;;1933649;73;21063;-75
2020/12/09 08:36:02;;;;;;;30.17;12.47;;;2.40;99.90;;;;;;1931373;74;21079;-75
2020/12/09 08:38:29;;;;;;;28.83;12.98;;;2.50;99.90;;;;;;1928762;74;21058;-75
2020/12/09 08:40:55;;;;;;;22.30;12.45;;;2.50;99.90;;;;;;1941568;73;21063;-75
2020/12/09 08:43:21;;;;;;;37.00;14.00;;;2.50;99.90;;;;;;1929748;74;21133;-75
2020/12/09 08:45:47;;;;;;;26.48;13.72;;;2.60;99.90;;;;;;1935617;73;21063;-74
2020/12/09 08:48:13;;;;;;;29.60;14.33;;;2.60;99.90;;;;;;1932187;74;21060;-75
2020/12/09 08:50:39;;;;;;;24.30;13.08;;;2.50;99.90;;;;;;1932534;73;21057;-74
2020/12/09 08:53:05;;;;;;;22.90;12.95;;;2.60;99.90;;;;;;1933845;74;21083;-75
2020/12/09 08:55:31;;;;;;;23.42;13.00;;;2.60;99.90;;;;;;1931365;74;21036;-75
2020/12/09 08:57:58;;;;;;;23.25;12.30;;;2.70;99.90;;;;;;1931246;73;21083;-75
2020/12/09 09:00:24;;;;;;;26.97;13.20;;;2.70;99.90;;;;;;1928463;73;21141;-75
2020/12/09 09:02:50;;;;;;;25.57;12.25;;;2.70;99.90;;;;;;1932947;74;21453;-75
2020/12/09 09:05:16;;;;;;;25.30;12.50;;;2.70;99.90;;;;;;1924673;73;21482;-74
2020/12/09 09:07:42;;;;;;;21.77;13.05;;;2.80;99.90;;;;;;1933423;73;21498;-74
2020/12/09 09:10:08;;;;;;;22.65;12.53;;;2.70;99.90;;;;;;1948422;73;21555;-74
2020/12/09 09:12:34;;;;;;;24.47;13.62;;;2.60;99.90;;;;;;1933965;74;21169;-75
2020/12/09 09:15:00;;;;;;;22.67;12.50;;;2.70;99.90;;;;;;1930208;73;21067;-75
2020/12/09 09:17:29;;;;;;;23.90;14.13;;;2.60;99.90;;;;;;1925329;74;21035;-76
2020/12/09 09:19:54;;;;;;;27.58;13.93;;;2.70;99.90;;;;;;1935084;72;21535;-74
2020/12/09 09:22:20;;;;;;;24.35;12.80;;;2.70;99.90;;;;;;1930691;74;21514;-75
2020/12/09 09:24:47;;;;;;;24.95;13.05;;;2.70;99.90;;;;;;1933522;73;21584;-76
2020/12/09 09:27:13;;;;;;;27.07;13.50;;;2.80;99.90;;;;;;1919335;74;21494;-75
2020/12/09 09:29:39;;;;;;;28.42;12.58;;;2.90;99.90;;;;;;1931566;73;21049;-75
2020/12/09 09:32:05;;;;;;;25.70;13.00;;;3.00;99.90;;;;;;1934080;73;21133;-74
2020/12/09 09:34:31;;;;;;;24.75;13.15;;;3.00;99.90;;;;;;1933800;73;21072;-74
2020/12/09 09:36:57;;;;;;;24.70;12.93;;;3.10;99.90;;;;;;1932488;73;21581;-75
2020/12/09 09:39:23;;;;;;;26.65;13.43;;;3.00;99.90;;;;;;1929510;73;21458;-75
2020/12/09 09:41:51;;;;;;;24.00;13.22;;;3.10;99.90;;;;;;1933279;73;21522;-75
2020/12/09 09:44:17;;;;;;;33.35;14.30;;;3.10;99.90;;;;;;1921931;74;21065;-76
2020/12/09 09:46:45;;;;;;;28.43;15.03;;;3.20;99.90;;;;;;1918116;73;21148;-75
2020/12/09 09:49:11;;;;;;;27.25;14.73;;;3.10;99.90;;;;;;1921373;74;21071;-74
2020/12/09 09:51:37;;;;;;;23.32;14.45;;;3.10;99.90;;;;;;1924126;73;21074;-75
2020/12/09 09:54:06;;;;;;;34.03;13.95;;;3.10;99.90;;;;;;1936026;73;21060;-75
2020/12/09 09:56:32;;;;;;;22.55;14.00;;;3.20;99.90;;;;;;1923448;73;21563;-74
2020/12/09 09:58:58;;;;;;;28.98;14.70;;;3.20;99.90;;;;;;1924170;74;21503;-75
2020/12/09 10:01:25;;;;;;;27.27;13.85;;;3.20;99.90;;;;;;1929859;73;21518;-75
2020/12/09 10:03:51;;;;;;;25.12;14.18;;;3.20;99.90;;;;;;1932233;74;21375;-75
2020/12/09 10:06:17;;;;;;;25.95;14.28;;;3.30;99.90;;;;;;1931041;74;21129;-75
2020/12/09 10:08:43;;;;;;;23.62;13.00;;;3.30;99.90;;;;;;1932119;74;21047;-76
2020/12/09 10:11:09;;;;;;;27.25;14.68;;;3.30;99.90;;;;;;1931599;73;21061;-75
2020/12/09 10:13:35;;;;;;;23.67;13.85;;;3.40;99.90;;;;;;1919553;74;21031;-74
2020/12/09 10:16:02;;;;;;;27.75;13.90;;;3.30;99.90;;;;;;1928869;74;21043;-75
2020/12/09 10:18:28;;;;;;;26.15;13.80;;;3.20;99.90;;;;;;1884638;74;21136;-76
2020/12/09 10:20:55;;;;;;;27.00;13.85;;;3.20;99.90;;;;;;1911502;74;21113;-75
2020/12/09 10:23:21;;;;;;;26.97;13.05;;;3.20;99.90;;;;;;1925871;73;21148;-75
2020/12/09 10:25:47;;;;;;;31.68;15.00;;;3.20;99.90;;;;;;1924846;74;21075;-75
2020/12/09 10:28:13;;;;;;;29.67;15.00;;;3.20;99.90;;;;;;1927042;73;21076;-75
2020/12/09 10:30:45;;;;;;;25.68;14.47;;;3.20;99.90;;;;;;1929857;73;21052;-75
2020/12/09 10:33:07;;;;;;;24.43;13.93;;;3.30;99.90;;;;;;1930129;73;21084;-75
2020/12/09 10:35:33;;;;;;;26.35;13.75;;;3.20;99.90;;;;;;1941705;73;21050;-79
2020/12/09 10:38:00;;;;;;;26.27;13.68;;;3.20;99.90;;;;;;1934191;73;21487;-83
2020/12/09 10:40:26;;;;;;;29.75;15.35;;;3.30;99.90;;;;;;1930730;73;21481;-74
2020/12/09 10:42:52;;;;;;;25.88;14.40;;;3.30;99.90;;;;;;1921304;74;21043;-77
2020/12/09 10:45:18;;;;;;;28.75;14.65;;;3.40;99.90;;;;;;1928737;74;21450;-78
2020/12/09 10:47:44;;;;;;;31.52;14.87;;;3.40;99.90;;;;;;1932267;73;21094;-77
2020/12/09 10:50:10;;;;;;;33.30;14.87;;;3.50;99.90;;;;;;1928562;73;21064;-78
2020/12/09 10:52:36;;;;;;;30.55;14.28;;;3.50;99.90;;;;;;1933303;74;21071;-74
2020/12/09 10:55:03;;;;;;;25.30;13.90;;;3.50;99.90;;;;;;1928171;73;21044;-80
2020/12/09 10:57:29;;;;;;;29.40;14.20;;;3.40;99.90;;;;;;1930594;73;21116;-75
2020/12/09 10:59:55;;;;;;;21.87;12.50;;;3.50;99.90;;;;;;1931721;74;21184;-78
2020/12/09 11:02:22;;;;;;;21.00;11.78;;;3.50;99.90;;;;;;1927247;74;21071;-79
2020/12/09 11:04:48;;;;;;;25.50;12.63;;;3.40;99.90;;;;;;1927544;73;21140;-83
2020/12/09 11:07:16;;;;;;;22.85;13.58;;;3.40;99.90;;;;;;1933884;73;21261;-81
2020/12/09 11:09:43;;;;;;;25.68;11.53;;;3.50;99.90;;;;;;1931197;73;21500;-87
2020/12/09 11:12:09;;;;;;;25.37;12.03;;;3.50;99.90;;;;;;1933771;73;21067;-82
2020/12/09 11:14:36;;;;;;;26.80;13.10;;;3.50;99.90;;;;;;1924534;73;21124;-81
2020/12/09 11:17:02;;;;;;;26.37;13.40;;;3.50;99.90;;;;;;1929962;74;21067;-83
2020/12/09 11:19:29;;;;;;;25.62;13.08;;;3.50;99.90;;;;;;1933086;74;21020;-81
2020/12/09 11:21:55;;;;;;;22.45;12.75;;;3.60;99.90;;;;;;1932709;73;21149;-81
2020/12/09 11:24:21;;;;;;;23.85;13.25;;;3.60;99.90;;;;;;1923933;74;21071;-82
2020/12/09 11:26:47;;;;;;;24.57;12.70;;;3.60;99.90;;;;;;1932222;73;21141;-80
2020/12/09 11:29:13;;;;;;;23.73;13.25;;;3.60;99.90;;;;;;1931642;74;21150;-81
2020/12/09 11:31:39;;;;;;;28.85;12.80;;;3.50;99.90;;;;;;1934192;73;21036;-80
2020/12/09 11:34:06;;;;;;;23.18;12.78;;;3.60;99.90;;;;;;1929511;73;21069;-79
2020/12/09 11:36:32;;;;;;;20.88;12.53;;;3.50;99.90;;;;;;1931055;73;21058;-81
2020/12/09 11:38:58;;;;;;;25.02;12.68;;;3.60;99.90;;;;;;1935368;74;21056;-81
2020/12/09 11:41:26;;;;;;;24.95;11.28;;;3.60;99.90;;;;;;1933480;74;21636;-81
2020/12/09 11:43:54;;;;;;;28.40;13.18;;;3.50;99.90;;;;;;1948708;72;21131;-79
2020/12/09 11:46:20;;;;;;;22.67;12.58;;;3.50;99.90;;;;;;1933574;72;21133;-79
2020/12/09 11:48:46;;;;;;;23.77;12.33;;;3.40;99.90;;;;;;1928259;73;21177;-78
2020/12/09 11:51:12;;;;;;;25.97;13.35;;;3.40;99.90;;;;;;1933239;73;21061;-84
2020/12/09 11:53:38;;;;;;;26.82;12.78;;;3.40;99.90;;;;;;1933923;73;21055;-80
2020/12/09 11:56:04;;;;;;;35.60;13.83;;;3.40;99.90;;;;;;1938981;73;21071;-81
2020/12/09 11:58:30;;;;;;;28.98;14.00;;;3.40;99.90;;;;;;1934035;74;21114;-81
2020/12/09 12:00:56;;;;;;;32.08;16.37;;;3.50;99.90;;;;;;1930833;74;21039;-79
2020/12/09 12:03:24;;;;;;;24.98;14.10;;;3.40;99.90;;;;;;1930678;74;21109;-81
2020/12/09 12:05:53;;;;;;;26.87;14.83;;;3.40;99.90;;;;;;1925682;73;21180;-80
2020/12/09 12:08:18;;;;;;;32.28;15.55;;;3.40;99.90;;;;;;1923159;73;21713;-82
2020/12/09 12:10:45;;;;;;;29.63;15.78;;;3.40;99.90;;;;;;1925608;73;21475;-83
2020/12/09 12:13:12;;;;;;;33.15;16.52;;;3.40;99.90;;;;;;1931389;74;21066;-82
2020/12/09 12:15:38;;;;;;;38.38;16.25;;;3.50;99.90;;;;;;1934478;73;21048;-80
2020/12/09 12:18:04;;;;;;;33.10;15.00;;;3.50;99.90;;;;;;1928221;73;21124;-83
2020/12/09 12:20:30;;;;;;;30.97;15.80;;;3.50;99.90;;;;;;1931354;73;21133;-82
2020/12/09 12:22:56;;;;;;;33.88;16.50;;;3.40;99.90;;;;;;1925558;74;21143;-81
2020/12/09 12:25:22;;;;;;;38.80;17.42;;;3.50;99.90;;;;;;1925521;74;21067;-81
2020/12/09 12:27:48;;;;;;;33.83;17.35;;;3.50;99.90;;;;;;1931777;74;21034;-82
2020/12/09 12:30:16;;;;;;;42.65;17.57;;;3.40;99.90;;;;;;1932747;74;21063;-80
2020/12/09 12:32:42;;;;;;;43.17;18.07;;;3.50;99.90;;;;;;1933370;74;21496;-84